createdAt,value
2018-04-15T00:00:10.811Z,1002.44
2018-04-15T00:00:51.325Z,1002.46
2018-04-15T00:01:31.888Z,1002.41
2018-04-15T00:02:12.365Z,1002.4
2018-04-15T00:02:52.883Z,1002.48
2018-04-15T00:03:33.361Z,1002.5
2018-04-15T00:04:13.903Z,1002.45
2018-04-15T00:04:54.356Z,1002.45
2018-04-15T00:05:34.872Z,1002.5
2018-04-15T00:06:15.387Z,1002.45
2018-04-15T00:06:55.852Z,1002.5
2018-04-15T00:07:36.353Z,1002.47
2018-04-15T00:08:16.925Z,1002.47
2018-04-15T00:08:57.426Z,1002.41
2018-04-15T00:09:37.942Z,1002.43
2018-04-15T00:10:18.416Z,1002.4
2018-04-15T00:10:58.904Z,1002.42
2018-04-15T00:11:39.419Z,1002.47
2018-04-15T00:12:19.870Z,1002.45
2018-04-15T00:13:00.454Z,1002.45
2018-04-15T00:13:40.919Z,1002.42
2018-04-15T00:14:21.375Z,1002.42
2018-04-15T00:15:01.882Z,1002.42
2018-04-15T00:15:42.416Z,1002.46
2018-04-15T00:16:22.921Z,1002.42
2018-04-15T00:17:03.409Z,1002.41
2018-04-15T00:17:44.015Z,1002.45
2018-04-15T00:18:24.530Z,1002.48
2018-04-15T00:19:04.997Z,1002.47
2018-04-15T00:19:45.489Z,1002.45
2018-04-15T00:20:25.965Z,1002.45
2018-04-15T00:21:06.435Z,1002.44
2018-04-15T00:21:46.969Z,1002.48
2018-04-15T00:22:27.453Z,1002.47
2018-04-15T00:23:07.948Z,1002.45
2018-04-15T00:23:48.501Z,1002.5
2018-04-15T00:24:29.054Z,1002.49
2018-04-15T00:25:09.522Z,1002.5
2018-04-15T00:25:50.045Z,1002.48
2018-04-15T00:26:30.504Z,1002.48
2018-04-15T00:27:11.012Z,1002.47
2018-04-15T00:27:51.503Z,1002.46
2018-04-15T00:28:31.966Z,1002.5
2018-04-15T00:29:12.463Z,1002.48
2018-04-15T00:29:53.013Z,1002.5
2018-04-15T00:30:33.519Z,1002.5
2018-04-15T00:31:14.040Z,1002.52
2018-04-15T00:31:54.559Z,1002.55
2018-04-15T00:32:35.068Z,1002.53
2018-04-15T00:33:15.560Z,1002.58
2018-04-15T00:33:56.069Z,1002.57
2018-04-15T00:34:36.595Z,1002.58
2018-04-15T00:35:17.054Z,1002.55
2018-04-15T00:35:57.520Z,1002.6
2018-04-15T00:36:38.048Z,1002.59
2018-04-15T00:37:18.510Z,1002.62
2018-04-15T00:37:59.010Z,1002.55
2018-04-15T00:38:39.499Z,1002.55
2018-04-15T00:39:20.004Z,1002.55
2018-04-15T00:40:00.515Z,1002.54
2018-04-15T00:40:41.163Z,1002.51
2018-04-15T00:41:21.624Z,1002.5
2018-04-15T00:42:02.229Z,1002.5
2018-04-15T00:42:42.753Z,1002.48
2018-04-15T00:43:23.228Z,1002.45
2018-04-15T00:44:03.901Z,1002.42
2018-04-15T00:44:44.419Z,1002.45
2018-04-15T00:45:24.974Z,1002.4
2018-04-15T00:46:05.436Z,1002.43
2018-04-15T00:46:45.955Z,1002.43
2018-04-15T00:47:26.440Z,1002.41
2018-04-15T00:48:06.899Z,1002.47
2018-04-15T00:48:47.421Z,1002.42
2018-04-15T00:49:27.873Z,1002.44
2018-04-15T00:50:08.339Z,1002.43
2018-04-15T00:50:48.847Z,1002.45
2018-04-15T00:51:29.317Z,1002.38
2018-04-15T00:52:09.794Z,1002.41
2018-04-15T00:52:50.292Z,1002.41
2018-04-15T00:53:30.805Z,1002.42
2018-04-15T00:54:11.289Z,1002.43
2018-04-15T00:54:51.737Z,1002.45
2018-04-15T00:55:32.225Z,1002.46
2018-04-15T00:56:12.747Z,1002.4
2018-04-15T00:56:53.253Z,1002.48
2018-04-15T00:57:33.739Z,1002.46
2018-04-15T00:58:14.217Z,1002.48
2018-04-15T00:58:54.685Z,1002.44
2018-04-15T00:59:35.170Z,1002.45
2018-04-15T01:00:15.684Z,1002.44
2018-04-15T01:00:56.187Z,1002.47
2018-04-15T01:01:36.736Z,1002.49
2018-04-15T01:02:17.218Z,1002.47
2018-04-15T01:02:57.729Z,1002.42
2018-04-15T01:03:38.238Z,1002.44
2018-04-15T01:04:18.781Z,1002.4
2018-04-15T01:04:59.308Z,1002.41
2018-04-15T01:05:39.798Z,1002.37
2018-04-15T01:06:20.262Z,1002.4
2018-04-15T01:07:00.745Z,1002.42
2018-04-15T01:07:41.299Z,1002.37
2018-04-15T01:08:21.790Z,1002.39
2018-04-15T01:09:02.299Z,1002.43
2018-04-15T01:09:42.802Z,1002.4
2018-04-15T01:10:23.273Z,1002.41
2018-04-15T01:11:03.783Z,1002.35
2018-04-15T01:11:44.335Z,1002.42
2018-04-15T01:12:24.789Z,1002.38
2018-04-15T01:13:05.267Z,1002.35
2018-04-15T01:13:45.771Z,1002.4
2018-04-15T01:14:26.297Z,1002.37
2018-04-15T01:15:06.796Z,1002.43
2018-04-15T01:15:47.276Z,1002.4
2018-04-15T01:16:27.810Z,1002.42
2018-04-15T01:17:08.321Z,1002.38
2018-04-15T01:17:48.794Z,1002.43
2018-04-15T01:18:29.301Z,1002.42
2018-04-15T01:19:09.800Z,1002.45
2018-04-15T01:19:50.306Z,1002.38
2018-04-15T01:20:30.804Z,1002.4
2018-04-15T01:21:11.290Z,1002.49
2018-04-15T01:21:51.757Z,1002.48
2018-04-15T01:22:32.252Z,1002.5
2018-04-15T01:23:12.738Z,1002.51
2018-04-15T01:23:53.199Z,1002.51
2018-04-15T01:24:33.683Z,1002.47
2018-04-15T01:25:14.218Z,1002.49
2018-04-15T01:25:54.728Z,1002.46
2018-04-15T01:26:35.221Z,1002.45
2018-04-15T01:27:15.734Z,1002.45
2018-04-15T01:27:56.217Z,1002.45
2018-04-15T01:28:36.726Z,1002.54
2018-04-15T01:29:17.278Z,1002.46
2018-04-15T01:29:57.738Z,1002.49
2018-04-15T01:30:38.221Z,1002.47
2018-04-15T01:31:18.724Z,1002.46
2018-04-15T01:31:59.216Z,1002.46
2018-04-15T01:32:39.713Z,1002.47
2018-04-15T01:33:20.228Z,1002.44
2018-04-15T01:34:00.699Z,1002.46
2018-04-15T01:34:41.220Z,1002.46
2018-04-15T01:35:21.762Z,1002.41
2018-04-15T01:36:02.204Z,1002.45
2018-04-15T01:36:42.725Z,1002.44
2018-04-15T01:37:23.213Z,1002.47
2018-04-15T01:38:03.732Z,1002.48
2018-04-15T01:38:44.193Z,1002.49
2018-04-15T01:39:24.712Z,1002.45
2018-04-15T01:40:05.174Z,1002.49
2018-04-15T01:40:45.685Z,1002.48
2018-04-15T01:41:26.258Z,1002.45
2018-04-15T01:42:06.654Z,1002.48
2018-04-15T01:42:47.155Z,1002.45
2018-04-15T01:43:27.729Z,1002.46
2018-04-15T01:44:08.196Z,1002.44
2018-04-15T01:44:48.659Z,1002.46
2018-04-15T01:45:29.312Z,1002.5
2018-04-15T01:46:09.839Z,1002.5
2018-04-15T01:46:50.302Z,1002.49
2018-04-15T01:47:30.809Z,1002.49
2018-04-15T01:48:11.308Z,1002.49
2018-04-15T01:48:51.823Z,1002.52
2018-04-15T01:49:32.340Z,1002.54
2018-04-15T01:50:12.906Z,1002.52
2018-04-15T01:50:53.288Z,1002.53
2018-04-15T01:51:33.762Z,1002.55
2018-04-15T01:52:14.294Z,1002.49
2018-04-15T01:52:54.836Z,1002.49
2018-04-15T01:53:35.276Z,1002.48
2018-04-15T01:54:15.803Z,1002.5
2018-04-15T01:54:56.252Z,1002.53
2018-04-15T01:55:36.832Z,1002.54
2018-04-15T01:56:17.237Z,1002.58
2018-04-15T01:56:57.754Z,1002.58
2018-04-15T01:57:38.296Z,1002.57
2018-04-15T01:58:18.817Z,1002.59
2018-04-15T01:58:59.240Z,1002.62
2018-04-15T01:59:39.745Z,1002.67
2018-04-15T02:00:20.284Z,1002.68
2018-04-15T02:01:00.702Z,1002.71
2018-04-15T02:01:41.266Z,1002.67
2018-04-15T02:02:21.791Z,1002.66
2018-04-15T02:03:02.285Z,1002.65
2018-04-15T02:03:42.778Z,1002.64
2018-04-15T02:04:23.277Z,1002.59
2018-04-15T02:05:03.802Z,1002.66
2018-04-15T02:05:44.277Z,1002.63
2018-04-15T02:06:24.764Z,1002.66
2018-04-15T02:07:05.210Z,1002.7
2018-04-15T02:07:45.705Z,1002.65
2018-04-15T02:08:26.336Z,1002.62
2018-04-15T02:09:06.877Z,1002.66
2018-04-15T02:09:47.348Z,1002.63
2018-04-15T02:10:27.837Z,1002.68
2018-04-15T02:11:08.331Z,1002.62
2018-04-15T02:11:48.828Z,1002.54
2018-04-15T02:12:29.328Z,1002.55
2018-04-15T02:13:09.820Z,1002.56
2018-04-15T02:13:50.320Z,1002.56
2018-04-15T02:14:30.798Z,1002.59
2018-04-15T02:15:11.279Z,1002.57
2018-04-15T02:15:51.739Z,1002.56
2018-04-15T02:16:32.272Z,1002.59
2018-04-15T02:17:12.769Z,1002.6
2018-04-15T02:17:53.233Z,1002.64
2018-04-15T02:18:33.692Z,1002.6
2018-04-15T02:19:14.201Z,1002.58
2018-04-15T02:19:54.690Z,1002.59
2018-04-15T02:20:35.181Z,1002.53
2018-04-15T02:21:15.693Z,1002.54
2018-04-15T02:21:56.185Z,1002.52
2018-04-15T02:22:36.650Z,1002.48
2018-04-15T02:23:17.202Z,1002.47
2018-04-15T02:23:57.676Z,1002.47
2018-04-15T02:24:38.444Z,1002.47
2018-04-15T02:25:18.921Z,1002.48
2018-04-15T02:25:59.421Z,1002.48
2018-04-15T02:26:39.907Z,1002.52
2018-04-15T02:27:20.398Z,1002.55
2018-04-15T02:28:00.892Z,1002.6
2018-04-15T02:28:41.394Z,1002.61
2018-04-15T02:29:21.868Z,1002.62
2018-04-15T02:30:02.366Z,1002.62
2018-04-15T02:30:42.827Z,1002.58
2018-04-15T02:31:23.317Z,1002.57
2018-04-15T02:32:03.815Z,1002.57
2018-04-15T02:32:44.311Z,1002.6
2018-04-15T02:33:24.813Z,1002.58
2018-04-15T02:34:05.330Z,1002.58
2018-04-15T02:34:45.744Z,1002.56
2018-04-15T02:35:26.258Z,1002.54
2018-04-15T02:36:06.711Z,1002.58
2018-04-15T02:36:47.232Z,1002.59
2018-04-15T02:37:27.702Z,1002.53
2018-04-15T02:38:08.178Z,1002.56
2018-04-15T02:38:48.659Z,1002.54
2018-04-15T02:39:29.211Z,1002.57
2018-04-15T02:40:09.720Z,1002.58
2018-04-15T02:40:50.196Z,1002.55
2018-04-15T02:41:30.680Z,1002.55
2018-04-15T02:42:11.155Z,1002.52
2018-04-15T02:42:51.729Z,1002.53
2018-04-15T02:43:32.141Z,1002.53
2018-04-15T02:44:12.641Z,1002.52
2018-04-15T02:44:53.152Z,1002.53
2018-04-15T02:45:33.614Z,1002.56
2018-04-15T02:46:14.124Z,1002.54
2018-04-15T02:46:54.603Z,1002.5
2018-04-15T02:47:35.079Z,1002.56
2018-04-15T02:48:15.544Z,1002.5
2018-04-15T02:48:56.031Z,1002.51
2018-04-15T02:49:36.604Z,1002.5
2018-04-15T02:50:17.098Z,1002.49
2018-04-15T02:50:57.583Z,1002.48
2018-04-15T02:51:38.060Z,1002.53
2018-04-15T02:52:18.578Z,1002.49
2018-04-15T02:52:59.121Z,1002.49
2018-04-15T02:53:39.663Z,1002.54
2018-04-15T02:54:20.172Z,1002.5
2018-04-15T02:55:00.617Z,1002.47
2018-04-15T02:55:41.077Z,1002.47
2018-04-15T02:56:21.568Z,1002.47
2018-04-15T02:57:02.124Z,1002.47
2018-04-15T02:57:42.599Z,1002.48
2018-04-15T02:58:23.126Z,1002.47
2018-04-15T02:59:03.637Z,1002.45
2018-04-15T02:59:44.149Z,1002.42
2018-04-15T03:00:25.406Z,1002.39
2018-04-15T03:01:05.064Z,1002.39
2018-04-15T03:01:45.525Z,1002.43
2018-04-15T03:02:26.038Z,1002.45
2018-04-15T03:03:06.556Z,1002.43
2018-04-15T03:03:47.075Z,1002.41
2018-04-15T03:04:27.591Z,1002.44
2018-04-15T03:05:08.051Z,1002.41
2018-04-15T03:05:48.560Z,1002.44
2018-04-15T03:06:29.055Z,1002.4
2018-04-15T03:07:09.537Z,1002.39
2018-04-15T03:07:50.039Z,1002.36
2018-04-15T03:08:30.542Z,1002.38
2018-04-15T03:09:11.026Z,1002.34
2018-04-15T03:09:51.495Z,1002.39
2018-04-15T03:10:31.993Z,1002.37
2018-04-15T03:11:12.518Z,1002.39
2018-04-15T03:11:53.035Z,1002.39
2018-04-15T03:12:33.521Z,1002.32
2018-04-15T03:13:14.017Z,1002.34
2018-04-15T03:13:54.518Z,1002.29
2018-04-15T03:14:34.988Z,1002.31
2018-04-15T03:15:15.489Z,1002.32
2018-04-15T03:15:56.030Z,1002.31
2018-04-15T03:16:36.500Z,1002.27
2018-04-15T03:17:16.964Z,1002.31
2018-04-15T03:17:57.450Z,1002.32
2018-04-15T03:18:37.957Z,1002.32
2018-04-15T03:19:18.431Z,1002.31
2018-04-15T03:19:58.920Z,1002.34
2018-04-15T03:20:39.409Z,1002.32
2018-04-15T03:21:19.876Z,1002.32
2018-04-15T03:22:00.395Z,1002.35
2018-04-15T03:22:40.879Z,1002.33
2018-04-15T03:23:21.402Z,1002.27
2018-04-15T03:24:01.867Z,1002.3
2018-04-15T03:24:42.378Z,1002.31
2018-04-15T03:25:22.882Z,1002.3
2018-04-15T03:26:03.342Z,1002.33
2018-04-15T03:26:43.867Z,1002.32
2018-04-15T03:27:24.357Z,1002.32
2018-04-15T03:28:04.849Z,1002.27
2018-04-15T03:28:45.346Z,1002.27
2018-04-15T03:29:25.809Z,1002.23
2018-04-15T03:30:06.331Z,1002.28
2018-04-15T03:30:46.754Z,1002.3
2018-04-15T03:31:27.392Z,1002.27
2018-04-15T03:32:07.899Z,1002.29
2018-04-15T03:32:48.343Z,1002.25
2018-04-15T03:33:28.839Z,1002.26
2018-04-15T03:34:09.350Z,1002.26
2018-04-15T03:34:49.802Z,1002.24
2018-04-15T03:35:30.300Z,1002.29
2018-04-15T03:36:10.793Z,1002.21
2018-04-15T03:36:51.302Z,1002.2
2018-04-15T03:37:31.787Z,1002.27
2018-04-15T03:38:12.283Z,1002.2
2018-04-15T03:38:52.756Z,1002.24
2018-04-15T03:39:33.277Z,1002.25
2018-04-15T03:40:13.738Z,1002.26
2018-04-15T03:40:54.218Z,1002.26
2018-04-15T03:41:34.688Z,1002.26
2018-04-15T03:42:15.184Z,1002.22
2018-04-15T03:42:55.656Z,1002.24
2018-04-15T03:43:36.137Z,1002.21
2018-04-15T03:44:16.657Z,1002.19
2018-04-15T03:44:57.149Z,1002.22
2018-04-15T03:45:37.644Z,1002.16
2018-04-15T03:46:18.128Z,1002.18
2018-04-15T03:46:58.575Z,1002.2
2018-04-15T03:47:39.064Z,1002.18
2018-04-15T03:48:19.545Z,1002.13
2018-04-15T03:49:00.054Z,1002.1
2018-04-15T03:49:40.539Z,1002.12
2018-04-15T03:50:21.050Z,1002.11
2018-04-15T03:51:01.515Z,1002.09
2018-04-15T03:51:42.011Z,1002.14
2018-04-15T03:52:22.492Z,1002.11
2018-04-15T03:53:02.997Z,1002.16
2018-04-15T03:53:43.467Z,1002.14
2018-04-15T03:54:23.985Z,1002.13
2018-04-15T03:55:04.436Z,1002.09
2018-04-15T03:55:44.893Z,1002.12
2018-04-15T03:56:25.395Z,1002.14
2018-04-15T03:57:05.844Z,1002.13
2018-04-15T03:57:46.341Z,1002.14
2018-04-15T03:58:26.793Z,1002.11
2018-04-15T03:59:07.601Z,1002.14
2018-04-15T03:59:48.095Z,1002.15
2018-04-15T04:00:28.597Z,1002.14
2018-04-15T04:01:09.062Z,1002.15
2018-04-15T04:01:49.574Z,1002.14
2018-04-15T04:02:30.039Z,1002.13
2018-04-15T04:03:10.588Z,1002.11
2018-04-15T04:03:51.094Z,1002.1
2018-04-15T04:04:31.551Z,1002.08
2018-04-15T04:05:12.034Z,1002.07
2018-04-15T04:05:52.540Z,1002.07
2018-04-15T04:06:33.003Z,1002.1
2018-04-15T04:07:13.486Z,1002.07
2018-04-15T04:07:54.012Z,1002.05
2018-04-15T04:08:34.528Z,1002.07
2018-04-15T04:09:15.041Z,1002.09
2018-04-15T04:09:55.508Z,1002.1
2018-04-15T04:10:36.050Z,1002.07
2018-04-15T04:11:16.483Z,1002.09
2018-04-15T04:11:56.978Z,1002.08
2018-04-15T04:12:37.472Z,1002.1
2018-04-15T04:13:17.988Z,1002.09
2018-04-15T04:13:58.429Z,1002.12
2018-04-15T04:14:38.921Z,1002.1
2018-04-15T04:15:19.409Z,1002.12
2018-04-15T04:15:59.886Z,1002.14
2018-04-15T04:16:40.404Z,1002.11
2018-04-15T04:17:20.920Z,1002.12
2018-04-15T04:18:01.426Z,1002.15
2018-04-15T04:18:41.958Z,1002.16
2018-04-15T04:19:22.478Z,1002.17
2018-04-15T04:20:03.041Z,1002.1
2018-04-15T04:20:43.509Z,1002.15
2018-04-15T04:21:24.027Z,1002.12
2018-04-15T04:22:04.567Z,1002.12
2018-04-15T04:22:45.084Z,1002.14
2018-04-15T04:23:25.602Z,1002.12
2018-04-15T04:24:06.124Z,1002.1
2018-04-15T04:24:46.619Z,1002.08
2018-04-15T04:25:27.140Z,1002.06
2018-04-15T04:26:07.660Z,1002.06
2018-04-15T04:26:48.175Z,1002.04
2018-04-15T04:27:28.710Z,1002.12
2018-04-15T04:28:09.247Z,1002.11
2018-04-15T04:28:49.765Z,1002.11
2018-04-15T04:29:30.288Z,1002.11
2018-04-15T04:30:10.813Z,1002.14
2018-04-15T04:30:51.319Z,1002.12
2018-04-15T04:31:31.836Z,1002.12
2018-04-15T04:32:12.351Z,1002.14
2018-04-15T04:32:52.867Z,1002.1
2018-04-15T04:33:33.407Z,1002.1
2018-04-15T04:34:13.912Z,1002.11
2018-04-15T04:34:54.417Z,1002.14
2018-04-15T04:35:34.933Z,1002.18
2018-04-15T04:36:15.456Z,1002.15
2018-04-15T04:36:55.979Z,1002.12
2018-04-15T04:37:36.489Z,1002.18
2018-04-15T04:38:17.025Z,1002.13
2018-04-15T04:38:57.561Z,1002.15
2018-04-15T04:39:38.081Z,1002.15
2018-04-15T04:40:18.594Z,1002.07
2018-04-15T04:40:59.112Z,1002.09
2018-04-15T04:41:39.621Z,1002.06
2018-04-15T04:42:20.180Z,1002.06
2018-04-15T04:43:00.701Z,1002.04
2018-04-15T04:43:41.209Z,1002
2018-04-15T04:44:21.733Z,1002.03
2018-04-15T04:45:02.299Z,1002.02
2018-04-15T04:45:42.790Z,1002.02
2018-04-15T04:46:23.318Z,1001.97
2018-04-15T04:47:03.835Z,1001.98
2018-04-15T04:47:44.345Z,1001.99
2018-04-15T04:48:24.855Z,1001.94
2018-04-15T04:49:05.371Z,1001.91
2018-04-15T04:49:46.465Z,1001.93
2018-04-15T04:50:26.985Z,1001.97
2018-04-15T04:51:07.533Z,1001.97
2018-04-15T04:51:48.039Z,1001.99
2018-04-15T04:52:28.562Z,1002
2018-04-15T04:53:09.074Z,1002.02
2018-04-15T04:53:49.590Z,1001.98
2018-04-15T04:54:30.104Z,1001.94
2018-04-15T04:55:10.606Z,1001.94
2018-04-15T04:55:51.130Z,1001.93
2018-04-15T04:56:31.678Z,1001.93
2018-04-15T04:57:12.193Z,1001.95
2018-04-15T04:57:52.707Z,1001.92
2018-04-15T04:58:33.214Z,1001.91
2018-04-15T04:59:13.736Z,1001.96
2018-04-15T04:59:54.260Z,1001.92
2018-04-15T05:00:34.789Z,1001.96
2018-04-15T05:01:15.296Z,1001.92
2018-04-15T05:01:55.837Z,1001.93
2018-04-15T05:02:36.303Z,1001.87
2018-04-15T05:03:16.834Z,1001.92
2018-04-15T05:03:57.408Z,1001.92
2018-04-15T05:04:37.848Z,1001.83
2018-04-15T05:05:18.352Z,1001.86
2018-04-15T05:05:58.849Z,1001.89
2018-04-15T05:06:39.357Z,1001.85
2018-04-15T05:07:19.865Z,1001.86
2018-04-15T05:08:00.400Z,1001.83
2018-04-15T05:08:40.848Z,1001.81
2018-04-15T05:09:21.374Z,1001.84
2018-04-15T05:10:01.841Z,1001.78
2018-04-15T05:10:42.374Z,1001.82
2018-04-15T05:11:22.843Z,1001.84
2018-04-15T05:12:03.305Z,1001.92
2018-04-15T05:12:43.821Z,1001.85
2018-04-15T05:13:24.284Z,1001.93
2018-04-15T05:14:04.834Z,1001.9
2018-04-15T05:14:45.308Z,1001.89
2018-04-15T05:15:25.774Z,1001.96
2018-04-15T05:16:06.288Z,1001.96
2018-04-15T05:16:46.750Z,1001.98
2018-04-15T05:17:27.284Z,1001.91
2018-04-15T05:18:07.772Z,1002.02
2018-04-15T05:18:48.280Z,1001.99
2018-04-15T05:19:28.785Z,1001.98
2018-04-15T05:20:09.270Z,1002
2018-04-15T05:20:49.714Z,1001.98
2018-04-15T05:21:30.216Z,1001.99
2018-04-15T05:22:10.688Z,1001.97
2018-04-15T05:22:51.166Z,1001.97
2018-04-15T05:23:31.628Z,1001.96
2018-04-15T05:24:12.201Z,1001.95
2018-04-15T05:24:52.698Z,1001.98
2018-04-15T05:25:33.174Z,1001.97
2018-04-15T05:26:13.695Z,1001.99
2018-04-15T05:26:54.236Z,1002.01
2018-04-15T05:27:34.676Z,1002
2018-04-15T05:28:15.201Z,1002.03
2018-04-15T05:28:55.683Z,1002.04
2018-04-15T05:29:36.178Z,1002.07
2018-04-15T05:30:16.737Z,1002.06
2018-04-15T05:30:57.219Z,1002.07
2018-04-15T05:31:37.723Z,1002.11
2018-04-15T05:32:18.209Z,1002.08
2018-04-15T05:32:58.717Z,1002.09
2018-04-15T05:33:39.178Z,1002.08
2018-04-15T05:34:19.670Z,1002.1
2018-04-15T05:35:00.190Z,1002.06
2018-04-15T05:35:40.822Z,1002.09
2018-04-15T05:36:21.457Z,1002.06
2018-04-15T05:37:01.915Z,1002.11
2018-04-15T05:37:42.386Z,1002.06
2018-04-15T05:38:22.884Z,1002.12
2018-04-15T05:39:03.643Z,1002.15
2018-04-15T05:39:44.169Z,1002.13
2018-04-15T05:40:24.643Z,1002.12
2018-04-15T05:41:05.160Z,1002.17
2018-04-15T05:41:45.871Z,1002.14
2018-04-15T05:42:26.273Z,1002.14
2018-04-15T05:43:06.766Z,1002.14
2018-04-15T05:43:47.228Z,1002.14
2018-04-15T05:44:27.732Z,1002.1
2018-04-15T05:45:08.418Z,1002.1
2018-04-15T05:45:49.250Z,1002.11
2018-04-15T05:46:30.218Z,1002.12
2018-04-15T05:47:10.771Z,1002.1
2018-04-15T05:47:51.203Z,1002.09
2018-04-15T05:48:31.701Z,1002.1
2018-04-15T05:49:12.207Z,1002.09
2018-04-15T05:49:52.703Z,1002.06
2018-04-15T05:50:33.989Z,1002.05
2018-04-15T05:51:13.628Z,1002.03
2018-04-15T05:51:54.502Z,1002.02
2018-04-15T05:52:35.358Z,1001.98
2018-04-15T05:53:15.835Z,1001.99
2018-04-15T05:53:56.427Z,1001.98
2018-04-15T05:54:36.940Z,1002.02
2018-04-15T05:55:17.447Z,1002.03
2018-04-15T05:55:57.970Z,1001.98
2018-04-15T05:56:38.428Z,1002.01
2018-04-15T05:57:18.925Z,1002.02
2018-04-15T05:57:59.451Z,1002.05
2018-04-15T05:58:39.916Z,1002.03
2018-04-15T05:59:20.423Z,1002.02
2018-04-15T06:00:00.954Z,1002.03
2018-04-15T06:00:41.396Z,1002.04
2018-04-15T06:01:21.913Z,1002.04
2018-04-15T06:02:02.439Z,1002.03
2018-04-15T06:02:42.984Z,1002.04
2018-04-15T06:03:23.725Z,1001.98
2018-04-15T06:04:04.243Z,1002.07
2018-04-15T06:04:44.773Z,1002.01
2018-04-15T06:05:25.308Z,1002.01
2018-04-15T06:06:05.842Z,1002.04
2018-04-15T06:06:46.347Z,1002.03
2018-04-15T06:07:26.870Z,1001.99
2018-04-15T06:08:07.379Z,1001.99
2018-04-15T06:08:47.879Z,1002.01
2018-04-15T06:09:28.406Z,1001.97
2018-04-15T06:10:08.937Z,1001.97
2018-04-15T06:10:49.451Z,1001.95
2018-04-15T06:11:29.968Z,1001.93
2018-04-15T06:12:10.484Z,1001.92
2018-04-15T06:12:50.992Z,1001.94
2018-04-15T06:13:31.517Z,1001.94
2018-04-15T06:14:12.403Z,1001.92
2018-04-15T06:14:53.038Z,1001.9
2018-04-15T06:15:33.524Z,1001.87
2018-04-15T06:16:14.053Z,1001.92
2018-04-15T06:16:54.562Z,1001.91
2018-04-15T06:17:35.081Z,1001.89
2018-04-15T06:18:15.593Z,1001.89
2018-04-15T06:18:56.117Z,1001.9
2018-04-15T06:19:36.650Z,1001.95
2018-04-15T06:20:17.186Z,1001.94
2018-04-15T06:20:57.725Z,1001.95
2018-04-15T06:21:38.204Z,1001.94
2018-04-15T06:22:18.724Z,1001.96
2018-04-15T06:22:59.247Z,1001.92
2018-04-15T06:23:39.770Z,1001.97
2018-04-15T06:24:20.284Z,1001.98
2018-04-15T06:25:00.802Z,1001.94
2018-04-15T06:25:41.319Z,1002.01
2018-04-15T06:26:21.832Z,1001.91
2018-04-15T06:27:02.389Z,1001.9
2018-04-15T06:27:43.287Z,1001.91
2018-04-15T06:28:23.827Z,1001.93
2018-04-15T06:29:04.359Z,1001.89
2018-04-15T06:29:44.871Z,1001.89
2018-04-15T06:30:25.399Z,1001.92
2018-04-15T06:31:05.929Z,1001.87
2018-04-15T06:31:46.470Z,1001.86
2018-04-15T06:32:26.977Z,1001.88
2018-04-15T06:33:07.487Z,1001.88
2018-04-15T06:33:48.005Z,1001.85
2018-04-15T06:34:28.503Z,1001.8
2018-04-15T06:35:09.237Z,1001.89
2018-04-15T06:37:07.417Z,1001.82
2018-04-15T06:37:47.940Z,1001.85
2018-04-15T06:38:28.467Z,1001.84
2018-04-15T06:39:09.256Z,1001.78
2018-04-15T06:39:49.792Z,1001.81
2018-04-15T06:40:30.303Z,1001.85
2018-04-15T06:41:10.822Z,1001.87
2018-04-15T06:41:51.343Z,1001.85
2018-04-15T06:42:31.853Z,1001.85
2018-04-15T06:43:12.381Z,1001.83
2018-04-15T06:43:52.915Z,1001.81
2018-04-15T06:44:33.460Z,1001.82
2018-04-15T06:45:13.986Z,1001.84
2018-04-15T06:45:54.485Z,1001.82
2018-04-15T06:46:35.014Z,1001.78
2018-04-15T06:47:15.519Z,1001.76
2018-04-15T06:47:56.030Z,1001.81
2018-04-15T06:48:36.551Z,1001.84
2018-04-15T06:49:17.113Z,1001.82
2018-04-15T06:49:57.570Z,1001.82
2018-04-15T06:50:38.098Z,1001.78
2018-04-15T06:51:18.617Z,1001.8
2018-04-15T06:51:59.169Z,1001.78
2018-04-15T06:52:39.693Z,1001.79
2018-04-15T06:53:20.207Z,1001.76
2018-04-15T06:54:00.721Z,1001.78
2018-04-15T06:54:41.245Z,1001.79
2018-04-15T06:55:21.756Z,1001.79
2018-04-15T06:56:02.292Z,1001.77
2018-04-15T06:56:42.814Z,1001.77
2018-04-15T06:57:23.338Z,1001.76
2018-04-15T06:58:03.863Z,1001.76
2018-04-15T06:58:44.378Z,1001.77
2018-04-15T06:59:24.911Z,1001.78
2018-04-15T07:00:05.427Z,1001.78
2018-04-15T07:00:45.960Z,1001.72
2018-04-15T07:01:26.479Z,1001.71
2018-04-15T07:02:06.985Z,1001.69
2018-04-15T07:02:47.496Z,1001.7
2018-04-15T07:03:28.008Z,1001.67
2018-04-15T07:04:08.524Z,1001.69
2018-04-15T07:04:49.037Z,1001.62
2018-04-15T07:06:49.047Z,1001.61
2018-04-15T07:07:29.797Z,1001.6
2018-04-15T07:08:10.348Z,1001.62
2018-04-15T07:08:50.856Z,1001.53
2018-04-15T07:09:31.440Z,1001.59
2018-04-15T07:10:11.929Z,1001.55
2018-04-15T07:10:52.449Z,1001.57
2018-04-15T07:11:32.963Z,1001.52
2018-04-15T07:12:13.510Z,1001.56
2018-04-15T07:12:54.821Z,1001.52
2018-04-15T07:13:35.333Z,1001.55
2018-04-15T07:14:15.855Z,1001.55
2018-04-15T07:14:56.370Z,1001.55
2018-04-15T07:15:36.887Z,1001.55
2018-04-15T07:16:17.421Z,1001.5
2018-04-15T07:16:57.940Z,1001.51
2018-04-15T07:17:38.448Z,1001.54
2018-04-15T07:18:18.970Z,1001.55
2018-04-15T07:18:59.511Z,1001.52
2018-04-15T07:19:40.028Z,1001.49
2018-04-15T07:21:33.207Z,1001.5
2018-04-15T07:22:13.718Z,1001.51
2018-04-15T07:22:54.390Z,1001.5
2018-04-15T07:23:34.943Z,1001.49
2018-04-15T07:24:15.462Z,1001.44
2018-04-15T07:24:55.963Z,1001.45
2018-04-15T07:25:36.499Z,1001.41
2018-04-15T07:26:17.002Z,1001.47
2018-04-15T07:26:57.531Z,1001.46
2018-04-15T07:27:38.065Z,1001.46
2018-04-15T07:28:18.573Z,1001.45
2018-04-15T07:28:59.111Z,1001.42
2018-04-15T07:29:39.609Z,1001.45
2018-04-15T07:30:20.116Z,1001.47
2018-04-15T07:31:00.637Z,1001.41
2018-04-15T07:31:41.162Z,1001.45
2018-04-15T07:32:21.698Z,1001.42
2018-04-15T07:33:02.229Z,1001.41
2018-04-15T07:33:42.898Z,1001.44
2018-04-15T07:34:23.376Z,1001.4
2018-04-15T07:35:03.905Z,1001.39
2018-04-15T07:35:44.390Z,1001.41
2018-04-15T07:36:25.020Z,1001.43
2018-04-15T07:37:05.491Z,1001.42
2018-04-15T07:37:46.039Z,1001.37
2018-04-15T07:38:26.602Z,1001.43
2018-04-15T07:39:07.136Z,1001.41
2018-04-15T07:39:47.688Z,1001.39
2018-04-15T07:40:28.220Z,1001.42
2018-04-15T07:41:08.747Z,1001.45
2018-04-15T07:41:49.275Z,1001.43
2018-04-15T07:42:29.781Z,1001.41
2018-04-15T07:43:10.335Z,1001.41
2018-04-15T07:43:50.860Z,1001.36
2018-04-15T07:44:31.379Z,1001.37
2018-04-15T07:45:11.896Z,1001.36
2018-04-15T07:45:52.412Z,1001.34
2018-04-15T07:46:32.975Z,1001.36
2018-04-15T07:47:13.475Z,1001.34
2018-04-15T07:47:54.016Z,1001.37
2018-04-15T07:48:34.593Z,1001.37
2018-04-15T07:49:15.239Z,1001.37
2018-04-15T07:49:55.729Z,1001.38
2018-04-15T07:50:36.249Z,1001.36
2018-04-15T07:51:16.723Z,1001.36
2018-04-15T07:51:57.215Z,1001.36
2018-04-15T07:52:37.720Z,1001.4
2018-04-15T07:53:18.210Z,1001.38
2018-04-15T07:53:58.809Z,1001.42
2018-04-15T07:54:39.353Z,1001.39
2018-04-15T07:55:19.821Z,1001.38
2018-04-15T07:56:00.296Z,1001.39
2018-04-15T07:56:42.317Z,1001.38
2018-04-15T07:57:23.968Z,1001.38
2018-04-15T07:58:07.895Z,1001.38
2018-04-15T07:58:48.837Z,1001.34
2018-04-15T07:59:29.551Z,1001.32
2018-04-15T08:00:10.040Z,1001.36
2018-04-15T08:00:50.593Z,1001.34
2018-04-15T08:01:31.068Z,1001.27
2018-04-15T08:02:12.405Z,1001.34
2018-04-15T08:02:53.637Z,1001.35
2018-04-15T08:03:34.115Z,1001.33
2018-04-15T08:04:15.091Z,1001.3
2018-04-15T08:04:55.627Z,1001.3
2018-04-15T08:05:36.204Z,1001.31
2018-04-15T08:06:16.830Z,1001.32
2018-04-15T08:06:58.110Z,1001.34
2018-04-15T08:07:38.650Z,1001.31
2018-04-15T08:08:19.118Z,1001.31
2018-04-15T08:08:59.589Z,1001.31
2018-04-15T08:09:40.161Z,1001.3
2018-04-15T08:10:20.575Z,1001.35
2018-04-15T08:11:01.100Z,1001.26
2018-04-15T08:11:41.637Z,1001.28
2018-04-15T08:12:23.608Z,1001.27
2018-04-15T08:13:04.181Z,1001.29
2018-04-15T08:13:44.617Z,1001.31
2018-04-15T08:14:25.107Z,1001.22
2018-04-15T08:15:06.420Z,1001.23
2018-04-15T08:15:47.002Z,1001.23